createdAt,value
2022-12-04T00:00:31.718Z,2.70
2022-12-04T00:02:58.547Z,2.70
2022-12-04T00:05:25.413Z,2.70
2022-12-04T00:07:52.521Z,2.70
2022-12-04T00:10:19.291Z,2.80
2022-12-04T00:12:46.048Z,2.70
2022-12-04T00:15:28.274Z,2.60
2022-12-04T00:17:55.096Z,2.60
2022-12-04T00:20:23.432Z,2.60
2022-12-04T00:22:50.335Z,2.70
2022-12-04T00:25:17.206Z,2.70
2022-12-04T00:27:44.005Z,2.70
2022-12-04T00:30:11.289Z,2.70
2022-12-04T00:32:38.028Z,2.80
2022-12-04T00:35:05.124Z,2.90
2022-12-04T00:37:33.414Z,2.70
2022-12-04T00:40:00.220Z,2.70
2022-12-04T00:42:26.999Z,2.70
2022-12-04T00:44:53.785Z,2.70
2022-12-04T00:47:20.833Z,2.70
2022-12-04T00:49:47.697Z,2.80
2022-12-04T00:52:14.542Z,2.70
2022-12-04T00:54:41.360Z,2.70
2022-12-04T00:57:08.249Z,2.70
2022-12-04T00:59:34.958Z,2.60
2022-12-04T01:02:01.711Z,2.60
2022-12-04T01:04:28.437Z,2.60
2022-12-04T01:06:58.012Z,2.60
2022-12-04T01:09:27.113Z,2.70
2022-12-04T01:11:53.853Z,2.60
2022-12-04T01:14:20.600Z,2.60
2022-12-04T01:16:47.529Z,2.60
2022-12-04T01:19:14.361Z,2.50
2022-12-04T01:21:41.476Z,2.60
2022-12-04T01:24:08.933Z,2.50
2022-12-04T01:26:36.019Z,2.50
2022-12-04T01:29:02.868Z,2.50
2022-12-04T01:31:29.727Z,2.40
2022-12-04T01:33:56.606Z,2.40
2022-12-04T01:36:26.142Z,2.50
2022-12-04T01:38:53.437Z,2.50
2022-12-04T01:41:27.682Z,2.50
2022-12-04T01:44:27.145Z,2.50
2022-12-04T01:46:56.361Z,2.50
2022-12-04T01:49:49.437Z,2.60
2022-12-04T01:52:21.459Z,2.60
2022-12-04T01:54:58.653Z,2.70
2022-12-04T01:57:31.031Z,2.60
2022-12-04T02:00:01.869Z,2.50
2022-12-04T02:02:55.623Z,2.40
2022-12-04T02:05:23.308Z,2.40
2022-12-04T02:07:52.434Z,2.30
2022-12-04T02:10:24.501Z,2.30
2022-12-04T02:12:55.158Z,2.30
2022-12-04T02:15:47.113Z,2.40
2022-12-04T02:18:35.699Z,2.40
2022-12-04T02:21:14.480Z,2.40
2022-12-04T02:24:05.343Z,2.30
2022-12-04T02:26:40.673Z,2.40
2022-12-04T02:29:27.788Z,2.40
2022-12-04T02:32:09.501Z,2.40
2022-12-04T02:34:41.965Z,2.50
2022-12-04T02:37:17.044Z,2.50
2022-12-04T02:39:56.195Z,2.40
2022-12-04T02:42:45.117Z,2.50
2022-12-04T02:45:23.839Z,2.60
2022-12-04T02:47:52.661Z,2.50
2022-12-04T02:50:22.289Z,2.40
2022-12-04T02:52:59.006Z,2.40
2022-12-04T02:55:35.046Z,2.50
2022-12-04T02:58:13.935Z,2.50
2022-12-04T03:00:43.460Z,2.50
2022-12-04T03:03:31.095Z,2.50
2022-12-04T03:06:09.288Z,2.40
2022-12-04T03:08:44.908Z,2.40
2022-12-04T03:11:11.663Z,2.30
2022-12-04T03:13:45.869Z,2.30
2022-12-04T03:16:25.013Z,2.30
2022-12-04T03:18:58.226Z,2.30
2022-12-04T03:21:29.969Z,2.20
2022-12-04T03:24:06.957Z,2.20
2022-12-04T03:26:41.494Z,2.20
2022-12-04T03:29:18.161Z,2.20
2022-12-04T03:32:10.189Z,2.10
2022-12-04T03:34:42.448Z,2.20
2022-12-04T03:37:17.553Z,2.30
2022-12-04T03:40:03.485Z,2.20
2022-12-04T03:42:46.546Z,2.20
2022-12-04T03:45:20.479Z,2.10
2022-12-04T03:47:55.285Z,2.20
2022-12-04T03:50:45.323Z,2.20
2022-12-04T03:53:30.981Z,2.10
2022-12-04T03:56:19.741Z,2.10
2022-12-04T03:58:50.922Z,2.10
2022-12-04T04:01:23.158Z,2.10
2022-12-04T04:03:53.201Z,2.10
2022-12-04T04:06:31.732Z,2.20
2022-12-04T04:09:05.073Z,2.10
2022-12-04T04:11:37.701Z,2.20
2022-12-04T04:14:49.696Z,2.20
2022-12-04T04:17:38.875Z,2.20
2022-12-04T04:20:33.042Z,2.20
2022-12-04T04:23:22.115Z,2.00
2022-12-04T04:25:51.516Z,2.00
2022-12-04T04:28:50.966Z,2.00
2022-12-04T04:31:26.446Z,2.10
2022-12-04T04:34:15.445Z,2.10
2022-12-04T04:37:16.091Z,2.10
2022-12-04T04:39:49.644Z,2.20
2022-12-04T04:42:29.748Z,2.20
2022-12-04T04:45:18.681Z,2.10
2022-12-04T04:48:01.989Z,2.00
2022-12-04T04:50:30.003Z,2.00
2022-12-04T04:53:01.343Z,2.00
2022-12-04T04:55:29.093Z,2.10
2022-12-04T04:58:24.062Z,2.20
2022-12-04T05:00:59.742Z,2.20
2022-12-04T05:03:27.796Z,2.10
2022-12-04T05:05:54.713Z,2.00
2022-12-04T05:08:22.296Z,2.00
2022-12-04T05:10:49.089Z,1.90
2022-12-04T05:13:17.381Z,1.80
2022-12-04T05:15:44.207Z,1.80
2022-12-04T05:18:11.474Z,1.90
2022-12-04T05:20:41.255Z,1.80
2022-12-04T05:23:08.035Z,1.70
2022-12-04T05:25:34.701Z,1.70
2022-12-04T05:28:01.439Z,1.70
2022-12-04T05:30:28.185Z,1.70
2022-12-04T05:32:54.931Z,1.70
2022-12-04T05:35:21.666Z,1.70
2022-12-04T05:37:48.481Z,1.70
2022-12-04T05:40:15.372Z,1.60
2022-12-04T05:42:42.091Z,1.60
2022-12-04T05:45:09.266Z,1.70
2022-12-04T05:47:44.191Z,1.60
2022-12-04T05:50:12.831Z,1.60
2022-12-04T05:52:39.843Z,1.70
2022-12-04T05:55:06.869Z,1.70
2022-12-04T05:57:33.570Z,1.80
2022-12-04T06:00:00.342Z,1.80
2022-12-04T06:02:27.284Z,1.90
2022-12-04T06:04:54.118Z,1.80
2022-12-04T06:07:20.934Z,1.80
2022-12-04T06:09:47.696Z,1.70
2022-12-04T06:12:14.403Z,1.70
2022-12-04T06:14:41.281Z,1.80
2022-12-04T06:17:09.212Z,1.80
2022-12-04T06:19:36.000Z,1.80
2022-12-04T06:22:03.107Z,1.70
2022-12-04T06:24:29.819Z,1.80
2022-12-04T06:29:45.435Z,1.80
2022-12-04T06:32:15.254Z,1.70
2022-12-04T06:34:46.303Z,1.60
2022-12-04T06:37:13.016Z,1.80
2022-12-04T06:39:39.749Z,1.70
2022-12-04T06:42:06.512Z,1.60
2022-12-04T06:44:33.292Z,1.60
2022-12-04T06:47:01.164Z,1.60
2022-12-04T06:49:28.195Z,1.60
2022-12-04T06:51:54.993Z,1.50
2022-12-04T06:54:21.794Z,1.60
2022-12-04T06:56:49.829Z,1.60
2022-12-04T06:59:16.564Z,1.50
2022-12-04T07:01:43.361Z,1.60
2022-12-04T07:04:10.096Z,1.70
2022-12-04T07:06:38.224Z,1.60
2022-12-04T07:09:06.604Z,1.60
2022-12-04T07:11:34.339Z,1.60
2022-12-04T07:14:01.216Z,1.40
2022-12-04T07:16:29.009Z,1.60
2022-12-04T07:18:56.718Z,1.50
2022-12-04T07:21:30.764Z,1.50
2022-12-04T07:24:00.028Z,1.50
2022-12-04T07:26:29.490Z,1.50
2022-12-04T07:28:57.515Z,1.50
2022-12-04T07:31:26.015Z,1.50
2022-12-04T07:33:54.062Z,1.50
2022-12-04T07:36:22.134Z,1.60
2022-12-04T07:38:49.366Z,1.50
2022-12-04T07:41:16.745Z,1.60
2022-12-04T07:43:43.702Z,1.60
2022-12-04T07:46:20.107Z,1.50
2022-12-04T07:48:47.000Z,1.60
2022-12-04T07:51:14.889Z,1.60
2022-12-04T07:53:42.384Z,1.60
2022-12-04T07:56:11.010Z,1.50
2022-12-04T07:58:38.289Z,1.50
2022-12-04T08:01:18.372Z,1.50
2022-12-04T08:03:48.556Z,1.60
2022-12-04T08:06:18.820Z,1.60
2022-12-04T08:08:46.056Z,1.50
2022-12-04T08:11:16.704Z,1.60
2022-12-04T08:13:43.937Z,1.70
2022-12-04T08:16:12.140Z,1.60
2022-12-04T08:18:40.299Z,1.60
2022-12-04T08:21:12.787Z,1.60
2022-12-04T08:23:43.759Z,1.60
2022-12-04T08:26:11.193Z,1.60
2022-12-04T08:28:38.907Z,1.70
2022-12-04T08:31:17.570Z,1.70
2022-12-04T08:33:46.241Z,1.70
2022-12-04T08:36:16.179Z,1.70
2022-12-04T08:38:43.250Z,1.60
2022-12-04T08:41:13.396Z,1.50
2022-12-04T08:43:41.023Z,1.60
2022-12-04T08:46:13.034Z,1.60
2022-12-04T08:48:40.200Z,1.70
2022-12-04T08:51:08.179Z,1.60
2022-12-04T08:53:38.607Z,1.70
2022-12-04T08:56:05.610Z,1.70
2022-12-04T08:58:32.441Z,1.60
2022-12-04T09:01:13.362Z,1.70
2022-12-04T09:03:40.917Z,1.50
2022-12-04T09:06:09.474Z,1.50
2022-12-04T09:08:36.934Z,1.60
2022-12-04T09:11:07.587Z,1.60
2022-12-04T09:13:35.222Z,1.60
2022-12-04T09:16:07.752Z,1.60
2022-12-04T09:18:35.948Z,1.70
2022-12-04T09:21:05.580Z,1.80
2022-12-04T09:23:34.075Z,1.70
2022-12-04T09:26:01.040Z,1.60
2022-12-04T09:28:28.683Z,1.60
2022-12-04T09:30:58.332Z,1.60
2022-12-04T09:33:25.371Z,1.60
2022-12-04T09:35:52.166Z,1.50
2022-12-04T09:38:19.234Z,1.60
2022-12-04T09:41:20.939Z,1.60
2022-12-04T09:43:49.624Z,1.70
2022-12-04T09:46:29.157Z,1.80
2022-12-04T09:49:01.734Z,1.80
2022-12-04T09:51:29.085Z,1.80
2022-12-04T09:54:13.864Z,1.80
2022-12-04T09:56:43.077Z,1.80
2022-12-04T09:59:22.154Z,1.70
2022-12-04T10:01:58.628Z,1.70
2022-12-04T10:04:25.567Z,1.70
2022-12-04T10:07:09.397Z,1.80
2022-12-04T10:09:50.691Z,1.80
2022-12-04T10:12:47.147Z,1.90
2022-12-04T10:15:38.199Z,1.90
2022-12-04T10:18:29.293Z,1.90
2022-12-04T10:21:17.921Z,2.00
2022-12-04T10:24:06.097Z,2.10
2022-12-04T10:26:40.597Z,2.30
2022-12-04T10:29:12.516Z,2.40
2022-12-04T10:31:41.513Z,2.40
2022-12-04T10:34:18.815Z,2.40
2022-12-04T10:36:52.946Z,2.40
2022-12-04T10:39:30.967Z,2.40
2022-12-04T10:42:24.641Z,2.60
2022-12-04T10:44:52.478Z,2.50
2022-12-04T10:47:19.631Z,2.60
2022-12-04T10:49:46.413Z,2.60
2022-12-04T10:52:13.289Z,2.70
2022-12-04T10:54:56.344Z,2.70
2022-12-04T10:57:22.988Z,2.70
2022-12-04T10:59:56.792Z,2.70
2022-12-04T11:02:29.830Z,2.80
2022-12-04T11:05:04.974Z,2.80
2022-12-04T11:07:37.276Z,2.80
2022-12-04T11:10:18.602Z,2.70
2022-12-04T11:13:02.221Z,2.90
2022-12-04T11:15:29.602Z,2.70
2022-12-04T11:18:08.324Z,2.70
2022-12-04T11:20:35.371Z,2.60
2022-12-04T11:23:02.429Z,2.70
2022-12-04T11:25:37.324Z,2.80
2022-12-04T11:28:05.299Z,2.70
2022-12-04T11:30:35.985Z,2.80
2022-12-04T11:33:06.817Z,2.70
2022-12-04T11:35:33.915Z,2.70
2022-12-04T11:38:15.406Z,2.80
2022-12-04T11:40:54.945Z,2.70
2022-12-04T11:43:26.650Z,2.70
2022-12-04T11:45:55.616Z,2.70
2022-12-04T11:48:22.630Z,2.80
2022-12-04T11:51:19.169Z,2.60
2022-12-04T11:53:55.612Z,2.70
2022-12-04T11:56:35.626Z,2.70
2022-12-04T11:59:08.304Z,2.70
2022-12-04T12:01:54.784Z,2.70
2022-12-04T12:04:33.601Z,2.80
2022-12-04T12:07:03.095Z,2.80
2022-12-04T12:09:46.237Z,2.80
2022-12-04T12:12:12.869Z,2.90
2022-12-04T12:15:14.498Z,2.90
2022-12-04T12:17:56.492Z,2.90
2022-12-04T12:20:32.209Z,2.90
2022-12-04T12:23:30.235Z,2.80
2022-12-04T12:26:15.102Z,2.90
2022-12-04T12:29:02.522Z,2.90
2022-12-04T12:32:12.779Z,3.00
2022-12-04T12:34:42.122Z,2.90
2022-12-04T12:37:28.642Z,2.80
2022-12-04T12:40:25.617Z,2.90
2022-12-04T12:43:05.806Z,2.80
2022-12-04T12:45:41.741Z,2.80
2022-12-04T12:48:32.494Z,2.80
2022-12-04T12:51:38.748Z,2.90
2022-12-04T12:54:26.457Z,2.80
2022-12-04T12:57:02.255Z,2.90
2022-12-04T12:59:29.393Z,2.90
2022-12-04T13:02:12.407Z,2.90
2022-12-04T13:04:41.606Z,2.80
2022-12-04T13:07:17.405Z,2.90
2022-12-04T13:10:07.032Z,2.80
2022-12-04T13:12:44.096Z,2.80
2022-12-04T13:15:21.034Z,2.90
2022-12-04T13:17:51.300Z,2.90
2022-12-04T13:20:26.422Z,2.90
2022-12-04T13:22:59.532Z,2.90
2022-12-04T13:25:44.361Z,2.80
2022-12-04T13:28:27.711Z,2.80
2022-12-04T13:31:21.249Z,2.70
2022-12-04T13:33:51.082Z,2.70
2022-12-04T13:36:38.610Z,2.80
2022-12-04T13:39:36.212Z,2.90
2022-12-04T13:42:05.996Z,2.90
2022-12-04T13:44:35.507Z,2.70
2022-12-04T13:47:06.830Z,2.80
2022-12-04T13:49:38.010Z,2.80
2022-12-04T13:52:20.482Z,2.70
2022-12-04T13:54:58.165Z,2.90
2022-12-04T13:57:25.435Z,2.80
2022-12-04T14:00:07.579Z,2.90
2022-12-04T14:02:37.851Z,2.90
2022-12-04T14:05:11.245Z,2.90
2022-12-04T14:07:39.532Z,3.00
2022-12-04T14:10:28.079Z,2.90
2022-12-04T14:13:12.931Z,2.90
2022-12-04T14:15:40.213Z,3.00
2022-12-04T14:18:13.235Z,3.10
2022-12-04T14:20:42.196Z,3.00
2022-12-04T14:23:26.268Z,2.90
2022-12-04T14:25:57.056Z,2.80
2022-12-04T14:28:38.744Z,2.90
2022-12-04T14:31:08.622Z,2.90
2022-12-04T14:33:42.939Z,2.80
2022-12-04T14:36:18.013Z,2.80
2022-12-04T14:38:49.857Z,2.90
2022-12-04T14:41:25.171Z,2.90
2022-12-04T14:43:52.032Z,2.80
2022-12-04T14:46:42.995Z,2.80
2022-12-04T14:49:27.160Z,2.80
2022-12-04T14:52:09.175Z,2.90
2022-12-04T14:54:54.795Z,2.80
2022-12-04T14:57:41.198Z,2.90
2022-12-04T15:00:20.838Z,2.90
2022-12-04T15:02:52.242Z,2.70
2022-12-04T15:05:28.570Z,2.70
2022-12-04T15:08:01.464Z,2.70
2022-12-04T15:10:48.698Z,2.70
2022-12-04T15:13:28.319Z,2.80
2022-12-04T15:15:55.079Z,2.80
2022-12-04T15:18:21.988Z,2.80
2022-12-04T15:20:48.652Z,2.70
2022-12-04T15:23:41.488Z,2.80
2022-12-04T15:26:12.776Z,2.80
2022-12-04T15:28:46.955Z,2.80
2022-12-04T15:31:20.977Z,2.80
2022-12-04T15:33:50.157Z,2.90
2022-12-04T15:36:18.765Z,2.90
2022-12-04T15:38:47.986Z,3.00
2022-12-04T15:41:33.348Z,2.90
2022-12-04T15:44:00.459Z,2.90
2022-12-04T15:46:32.956Z,3.00
2022-12-04T15:49:13.512Z,3.10
2022-12-04T15:51:40.303Z,3.00
2022-12-04T15:54:14.886Z,3.00
2022-12-04T15:56:41.731Z,2.90
2022-12-04T15:59:17.667Z,2.90
2022-12-04T16:01:44.598Z,2.90
2022-12-04T16:04:22.669Z,3.00
2022-12-04T16:06:51.706Z,2.90
2022-12-04T16:09:25.775Z,2.80
2022-12-04T16:12:05.458Z,2.90
2022-12-04T16:14:32.159Z,2.90
2022-12-04T16:17:05.930Z,2.90
2022-12-04T16:19:38.643Z,2.90
2022-12-04T16:22:12.894Z,3.00
2022-12-04T16:24:39.631Z,3.00
2022-12-04T16:27:15.933Z,3.20
2022-12-04T16:29:43.144Z,3.10
2022-12-04T16:32:16.455Z,3.00
2022-12-04T16:34:43.190Z,3.10
2022-12-04T16:37:21.011Z,3.00
2022-12-04T16:39:48.614Z,2.90
2022-12-04T16:42:18.627Z,3.00
2022-12-04T16:44:45.863Z,3.00
2022-12-04T16:47:13.503Z,3.00
2022-12-04T16:49:41.679Z,3.00
2022-12-04T16:52:11.170Z,3.20
2022-12-04T16:54:38.243Z,3.10
2022-12-04T16:57:05.249Z,3.00
2022-12-04T16:59:32.256Z,3.00
2022-12-04T17:01:59.985Z,3.00
2022-12-04T17:04:27.261Z,3.00
2022-12-04T17:06:54.073Z,2.90
2022-12-04T17:09:21.413Z,3.00
2022-12-04T17:11:48.184Z,3.00
2022-12-04T17:14:15.010Z,3.00
2022-12-04T17:16:43.570Z,3.00
2022-12-04T17:19:11.804Z,3.00
2022-12-04T17:21:40.381Z,3.00
2022-12-04T17:24:07.384Z,2.90
2022-12-04T17:26:34.171Z,2.90
2022-12-04T17:29:00.930Z,2.90
2022-12-04T17:31:28.072Z,2.80
2022-12-04T17:33:57.213Z,2.80
2022-12-04T17:36:26.166Z,3.00
2022-12-04T17:38:57.649Z,2.90
2022-12-04T17:41:24.925Z,3.00
2022-12-04T17:43:51.803Z,3.00
2022-12-04T17:46:22.897Z,2.90
2022-12-04T17:48:50.032Z,2.90
2022-12-04T17:51:19.668Z,2.90
2022-12-04T17:53:47.144Z,3.00
2022-12-04T17:56:17.428Z,3.10
2022-12-04T17:58:44.983Z,3.10
2022-12-04T18:01:20.657Z,3.00
2022-12-04T18:03:59.317Z,3.00
2022-12-04T18:06:28.632Z,3.10
2022-12-04T18:08:55.788Z,3.10
2022-12-04T18:11:25.715Z,3.10
2022-12-04T18:14:01.390Z,3.10
2022-12-04T18:16:30.226Z,3.00
2022-12-04T18:18:59.166Z,3.00
2022-12-04T18:21:26.256Z,3.00
2022-12-04T18:23:56.011Z,3.10
2022-12-04T18:26:24.804Z,3.30
2022-12-04T18:28:51.616Z,3.20
2022-12-04T18:31:19.496Z,3.10
2022-12-04T18:33:47.294Z,3.20
2022-12-04T18:36:20.194Z,3.20
2022-12-04T18:38:47.084Z,3.20
2022-12-04T18:41:15.787Z,3.20
2022-12-04T18:43:44.769Z,3.20
2022-12-04T18:46:13.893Z,3.10
2022-12-04T18:48:44.123Z,3.00
2022-12-04T18:51:28.015Z,3.10
2022-12-04T18:54:03.795Z,3.10
2022-12-04T18:56:32.182Z,3.00
2022-12-04T18:59:01.887Z,2.90
2022-12-04T19:01:29.198Z,3.10
2022-12-04T19:03:59.066Z,3.10
2022-12-04T19:06:37.858Z,3.20
2022-12-04T19:09:07.791Z,3.00
2022-12-04T19:11:35.252Z,3.10
2022-12-04T19:14:05.658Z,3.10
2022-12-04T19:16:37.344Z,3.00
2022-12-04T19:19:04.336Z,3.20
2022-12-04T19:21:31.374Z,3.10
2022-12-04T19:24:00.332Z,3.10
2022-12-04T19:26:28.531Z,3.10
2022-12-04T19:28:55.560Z,3.10
2022-12-04T19:31:28.186Z,3.00
2022-12-04T19:33:58.457Z,2.90
2022-12-04T19:36:27.452Z,2.90
2022-12-04T19:38:55.055Z,2.80
2022-12-04T19:41:25.628Z,2.90
2022-12-04T19:43:55.869Z,2.90
2022-12-04T19:46:25.999Z,3.20
2022-12-04T19:48:58.689Z,3.10
2022-12-04T19:51:26.039Z,3.10
2022-12-04T19:53:54.659Z,3.00
2022-12-04T19:56:24.479Z,3.10
2022-12-04T19:58:56.387Z,3.20
2022-12-04T20:01:25.418Z,3.10
2022-12-04T20:03:52.681Z,3.00
2022-12-04T20:06:22.127Z,3.00
2022-12-04T20:08:54.869Z,2.90
2022-12-04T20:11:22.366Z,2.90
2022-12-04T20:13:49.609Z,2.90
2022-12-04T20:16:18.632Z,3.00
2022-12-04T20:18:45.795Z,3.00
2022-12-04T20:21:13.502Z,3.00
2022-12-04T20:23:51.416Z,3.00
2022-12-04T20:26:23.766Z,3.10
2022-12-04T20:28:51.586Z,3.20
2022-12-04T20:31:33.632Z,3.10
2022-12-04T20:34:02.607Z,3.00
2022-12-04T20:36:31.024Z,3.00
2022-12-04T20:38:59.370Z,2.90
2022-12-04T20:41:28.636Z,3.00
2022-12-04T20:43:58.379Z,3.00
2022-12-04T20:46:32.383Z,2.80
2022-12-04T20:49:01.155Z,2.90
2022-12-04T20:51:31.347Z,2.90
2022-12-04T20:54:00.010Z,2.70
2022-12-04T20:56:30.020Z,2.70
2022-12-04T20:58:58.382Z,2.70
2022-12-04T21:01:25.608Z,2.70
2022-12-04T21:03:53.122Z,2.70
2022-12-04T21:06:29.596Z,2.70
2022-12-04T21:09:02.145Z,2.80
2022-12-04T21:11:36.345Z,2.80
2022-12-04T21:14:25.049Z,2.70
2022-12-04T21:16:52.400Z,2.70
2022-12-04T21:19:21.167Z,2.70
2022-12-04T21:21:47.964Z,2.70
2022-12-04T21:24:17.787Z,2.80
2022-12-04T21:26:44.807Z,2.80
2022-12-04T21:29:11.961Z,2.80
2022-12-04T21:31:39.539Z,2.80
2022-12-04T21:34:08.594Z,2.80
2022-12-04T21:36:35.684Z,2.70
2022-12-04T21:39:03.163Z,2.60
2022-12-04T21:41:48.712Z,2.60
2022-12-04T21:44:17.826Z,2.60
2022-12-04T21:46:46.137Z,2.80
2022-12-04T21:49:13.727Z,2.70
2022-12-04T21:51:56.793Z,2.70
2022-12-04T21:54:25.392Z,2.60
2022-12-04T21:56:52.377Z,2.60
2022-12-04T21:59:19.270Z,2.70
2022-12-04T22:01:46.210Z,2.60
2022-12-04T22:04:13.376Z,2.60
2022-12-04T22:06:40.254Z,2.60
2022-12-04T22:09:09.295Z,2.60
2022-12-04T22:11:36.480Z,2.60
2022-12-04T22:14:03.898Z,2.60
2022-12-04T22:16:32.186Z,2.60
2022-12-04T22:19:00.768Z,2.60
2022-12-04T22:21:28.435Z,2.60
2022-12-04T22:24:02.352Z,2.70
2022-12-04T22:26:30.602Z,2.80
2022-12-04T22:28:57.930Z,2.90
2022-12-04T22:31:26.937Z,3.00
2022-12-04T22:33:55.370Z,3.00
2022-12-04T22:36:24.968Z,2.90
2022-12-04T22:39:08.748Z,3.00
2022-12-04T22:41:36.626Z,3.00
2022-12-04T22:44:03.876Z,3.10
2022-12-04T22:46:30.829Z,3.20
2022-12-04T22:48:58.941Z,2.90
2022-12-04T22:51:27.062Z,2.90
2022-12-04T22:53:56.298Z,3.10
2022-12-04T22:56:29.362Z,2.90
2022-12-04T22:58:57.978Z,3.10
2022-12-04T23:01:29.614Z,3.10
2022-12-04T23:03:57.014Z,3.20
2022-12-04T23:06:25.934Z,3.20
2022-12-04T23:08:58.268Z,3.10
2022-12-04T23:11:26.048Z,3.00
2022-12-04T23:13:54.463Z,3.00
2022-12-04T23:16:22.836Z,3.00
2022-12-04T23:18:49.820Z,2.80
2022-12-04T23:21:17.920Z,2.70
2022-12-04T23:23:45.894Z,2.70
2022-12-04T23:26:15.554Z,2.80
2022-12-04T23:28:42.512Z,2.80
2022-12-04T23:31:10.908Z,2.80
2022-12-04T23:33:38.893Z,2.80
2022-12-04T23:36:07.835Z,2.70
2022-12-04T23:38:36.463Z,2.70
2022-12-04T23:41:11.351Z,2.70
2022-12-04T23:43:38.876Z,2.70
2022-12-04T23:46:10.968Z,2.60
2022-12-04T23:48:39.185Z,2.60
2022-12-04T23:51:06.535Z,2.70
2022-12-04T23:53:33.305Z,2.60
2022-12-04T23:56:06.805Z,2.50
2022-12-04T23:58:35.401Z,2.50
